Terminal Aerodrome Forecast
Issued by NWS Cleveland, OH

Home | Current Version | Previous Version | Text Only | Print | Product List | Glossary Off
Versions: 1 2 3 4 5 6 7 8 9 10 11 12 13 14 15 16 17 18 19

735
FTUS41 KCLE 231326 AAA
TAFYNG
TAF AMD
KYNG 231326Z 2313/2412 26006KT P6SM SCT030
     FM231500 30006KT P6SM SKC
     FM240800 VRB03KT 4SM BR SKC=

USA.gov is the U.S. government's official web portal to all federal, state and local government web resources and services.